createdAt,value
2022-08-24T00:02:01.504Z,3.22
2022-08-24T00:04:31.990Z,3.00
2022-08-24T00:07:02.857Z,3.33
2022-08-24T00:09:31.527Z,3.78
2022-08-24T00:11:59.990Z,3.58
2022-08-24T00:14:28.399Z,3.83
2022-08-24T00:16:57.823Z,4.65
2022-08-24T00:19:26.764Z,4.30
2022-08-24T00:21:55.067Z,4.82
2022-08-24T00:24:24.797Z,4.78
2022-08-24T00:26:54.008Z,4.32
2022-08-24T00:29:23.647Z,4.90
2022-08-24T00:31:51.861Z,5.15
2022-08-24T00:34:20.363Z,4.68
2022-08-24T00:36:49.535Z,5.28
2022-08-24T00:39:17.924Z,5.15
2022-08-24T00:41:50.341Z,5.40
2022-08-24T00:44:20.129Z,6.05
2022-08-24T00:46:52.908Z,4.90
2022-08-24T00:49:27.282Z,4.97
2022-08-24T00:52:13.551Z,5.75
2022-08-24T00:54:46.435Z,4.82
2022-08-24T00:57:19.885Z,4.05
2022-08-24T00:59:51.479Z,4.43
2022-08-24T01:02:23.683Z,4.70
2022-08-24T01:04:55.241Z,4.82
2022-08-24T01:07:24.883Z,4.57
2022-08-24T01:09:54.624Z,4.05
2022-08-24T01:12:25.345Z,5.18
2022-08-24T01:14:54.028Z,4.43
2022-08-24T01:17:45.138Z,5.18
2022-08-24T01:20:13.922Z,4.63
2022-08-24T01:22:57.535Z,4.82
2022-08-24T01:25:28.656Z,4.70
2022-08-24T01:28:00.574Z,5.10
2022-08-24T01:30:36.758Z,4.55
2022-08-24T01:33:08.662Z,5.57
2022-08-24T01:35:38.561Z,4.70
2022-08-24T01:38:11.542Z,5.07
2022-08-24T01:40:45.189Z,4.68
2022-08-24T01:43:15.105Z,5.38
2022-08-24T01:45:43.352Z,4.50
2022-08-24T01:48:11.713Z,4.53
2022-08-24T01:50:39.889Z,4.28
2022-08-24T01:53:08.477Z,4.82
2022-08-24T01:55:36.935Z,4.65
2022-08-24T01:58:07.020Z,4.10
2022-08-24T02:00:36.677Z,4.60
2022-08-24T02:03:05.720Z,4.60
2022-08-24T02:05:34.690Z,4.57
2022-08-24T02:08:03.046Z,4.97
2022-08-24T02:10:31.767Z,4.72
2022-08-24T02:13:00.254Z,5.00
2022-08-24T02:15:32.393Z,5.00
2022-08-24T02:18:01.384Z,4.57
2022-08-24T02:20:30.323Z,5.15
2022-08-24T02:22:59.072Z,6.65
2022-08-24T02:25:30.606Z,5.80
2022-08-24T02:27:59.578Z,7.57
2022-08-24T02:30:28.151Z,7.32
2022-08-24T02:32:58.190Z,7.57
2022-08-24T02:35:27.036Z,7.60
2022-08-24T02:37:55.200Z,8.00
2022-08-24T02:40:24.449Z,7.25
2022-08-24T02:42:52.903Z,7.00
2022-08-24T02:45:21.470Z,7.75
2022-08-24T02:47:49.710Z,7.22
2022-08-24T02:50:20.053Z,7.45
2022-08-24T02:52:48.735Z,6.97
2022-08-24T02:55:20.519Z,7.68
2022-08-24T02:57:50.527Z,8.05
2022-08-24T03:00:21.435Z,7.40
2022-08-24T03:02:50.069Z,7.72
2022-08-24T03:05:19.909Z,8.73
2022-08-24T03:07:48.060Z,7.90
2022-08-24T03:10:16.421Z,7.88
2022-08-24T03:12:44.815Z,7.38
2022-08-24T03:15:13.674Z,7.38
2022-08-24T03:17:43.094Z,7.35
2022-08-24T03:20:15.900Z,8.18
2022-08-24T03:22:46.306Z,7.53
2022-08-24T03:25:15.956Z,8.68
2022-08-24T03:27:44.396Z,8.40
2022-08-24T03:30:14.919Z,9.07
2022-08-24T03:32:43.868Z,9.52
2022-08-24T03:35:14.312Z,7.32
2022-08-24T03:37:42.657Z,7.32
2022-08-24T03:40:22.750Z,6.80
2022-08-24T03:42:53.652Z,6.70
2022-08-24T03:45:22.925Z,6.20
2022-08-24T03:47:51.367Z,6.50
2022-08-24T03:50:20.339Z,6.25
2022-08-24T03:52:49.058Z,5.78
2022-08-24T03:55:19.241Z,6.25
2022-08-24T03:57:47.335Z,6.30
2022-08-24T04:00:16.012Z,5.90
2022-08-24T04:02:44.605Z,5.70
2022-08-24T04:05:13.524Z,6.47
2022-08-24T04:07:41.681Z,5.85
2022-08-24T04:10:11.408Z,5.93
2022-08-24T04:12:41.245Z,5.75
2022-08-24T04:15:10.370Z,6.05
2022-08-24T04:17:38.568Z,5.78
2022-08-24T04:20:08.890Z,6.03
2022-08-24T04:22:37.567Z,6.30
2022-08-24T04:25:09.000Z,6.35
2022-08-24T04:27:38.555Z,6.18
2022-08-24T04:30:09.815Z,6.07
2022-08-24T04:32:42.737Z,5.97
2022-08-24T04:35:11.732Z,6.75
2022-08-24T04:37:40.009Z,6.88
2022-08-24T04:40:09.684Z,6.43
2022-08-24T04:42:39.138Z,6.22
2022-08-24T04:45:10.112Z,6.75
2022-08-24T04:47:38.337Z,6.68
2022-08-24T04:50:07.656Z,13.77
2022-08-24T04:52:37.120Z,8.15
2022-08-24T04:55:07.671Z,9.32
2022-08-24T04:57:36.315Z,7.78
2022-08-24T05:00:06.525Z,7.05
2022-08-24T05:02:39.812Z,7.72
2022-08-24T05:05:11.395Z,7.68
2022-08-24T05:07:40.204Z,7.30
2022-08-24T05:10:10.949Z,7.15
2022-08-24T05:12:39.384Z,7.43
2022-08-24T05:15:08.719Z,7.75
2022-08-24T05:17:40.939Z,7.57
2022-08-24T05:20:12.075Z,8.18
2022-08-24T05:22:40.569Z,7.50
2022-08-24T05:25:09.625Z,6.95
2022-08-24T05:27:37.812Z,7.43
2022-08-24T05:30:07.435Z,7.75
2022-08-24T05:32:36.980Z,6.82
2022-08-24T05:35:05.938Z,7.38
2022-08-24T05:37:36.867Z,7.88
2022-08-24T05:40:05.642Z,7.90
2022-08-24T05:42:33.782Z,8.30
2022-08-24T05:45:02.086Z,8.57
2022-08-24T05:47:30.232Z,8.90
2022-08-24T05:50:01.832Z,8.30
2022-08-24T05:52:30.600Z,8.15
2022-08-24T05:55:00.230Z,7.78
2022-08-24T05:57:32.894Z,8.15
2022-08-24T06:00:01.503Z,7.63
2022-08-24T06:02:30.086Z,6.68
2022-08-24T06:04:58.456Z,6.90
2022-08-24T06:07:28.138Z,7.63
2022-08-24T06:10:06.295Z,6.25
2022-08-24T06:12:43.297Z,6.18
2022-08-24T06:15:11.884Z,8.13
2022-08-24T06:17:40.175Z,7.85
2022-08-24T06:20:09.437Z,8.20
2022-08-24T06:22:38.962Z,8.65
2022-08-24T06:25:25.621Z,7.88
2022-08-24T06:27:53.780Z,8.48
2022-08-24T06:30:22.031Z,8.10
2022-08-24T06:33:01.039Z,7.05
2022-08-24T06:35:29.395Z,6.78
2022-08-24T06:37:59.170Z,18.23
2022-08-24T06:40:28.459Z,7.07
2022-08-24T06:42:56.617Z,6.45
2022-08-24T06:45:24.780Z,7.47
2022-08-24T06:47:52.916Z,6.30
2022-08-24T06:50:24.604Z,18.33
2022-08-24T06:52:52.906Z,7.13
2022-08-24T06:55:22.398Z,7.18
2022-08-24T06:57:52.704Z,6.43
2022-08-24T07:00:21.745Z,6.80
2022-08-24T07:02:50.391Z,6.85
2022-08-24T07:05:19.218Z,7.07
2022-08-24T07:07:48.050Z,8.23
2022-08-24T07:10:16.281Z,7.88
2022-08-24T07:12:46.893Z,8.07
2022-08-24T07:15:16.582Z,8.48
2022-08-24T07:17:44.931Z,9.05
2022-08-24T07:20:14.477Z,7.72
2022-08-24T07:22:43.593Z,8.48
2022-08-24T07:25:13.649Z,7.97
2022-08-24T07:27:41.927Z,7.75
2022-08-24T07:30:27.305Z,8.20
2022-08-24T07:32:57.902Z,11.23
2022-08-24T07:35:26.761Z,8.52
2022-08-24T07:37:55.408Z,10.40
2022-08-24T07:40:24.116Z,8.90
2022-08-24T07:42:53.669Z,8.75
2022-08-24T07:45:23.989Z,8.77
2022-08-24T07:47:55.388Z,9.10
2022-08-24T07:50:24.350Z,7.40
2022-08-24T07:52:52.937Z,8.48
2022-08-24T07:55:21.584Z,7.40
2022-08-24T07:57:50.355Z,7.72
2022-08-24T08:00:20.666Z,8.05
2022-08-24T08:02:50.631Z,7.28
2022-08-24T08:05:22.612Z,7.00
2022-08-24T08:07:52.223Z,7.25
2022-08-24T08:10:20.647Z,8.30
2022-08-24T08:12:49.069Z,7.25
2022-08-24T08:15:17.183Z,7.53
2022-08-24T08:17:45.314Z,7.10
2022-08-24T08:20:16.012Z,6.90
2022-08-24T08:23:05.331Z,8.50
2022-08-24T08:25:33.643Z,7.00
2022-08-24T08:28:08.019Z,7.18
2022-08-24T08:30:47.074Z,7.70
2022-08-24T08:33:15.641Z,7.30
2022-08-24T08:35:45.461Z,6.70
2022-08-24T08:38:14.059Z,6.55
2022-08-24T08:40:55.588Z,7.57
2022-08-24T08:43:41.530Z,6.80
2022-08-24T08:46:24.030Z,8.55
2022-08-24T08:49:04.897Z,7.40
2022-08-24T08:52:14.033Z,7.90
2022-08-24T08:55:00.710Z,8.30
2022-08-24T08:57:43.961Z,7.45
2022-08-24T09:00:17.673Z,8.07
2022-08-24T09:03:12.922Z,8.02
2022-08-24T09:06:05.186Z,8.13
2022-08-24T09:09:02.774Z,8.45
2022-08-24T09:11:43.891Z,8.82
2022-08-24T09:14:49.152Z,8.55
2022-08-24T09:17:34.918Z,7.18
2022-08-24T09:20:17.564Z,8.45
2022-08-24T09:22:48.449Z,8.63
2022-08-24T09:25:26.753Z,9.10
2022-08-24T09:28:14.709Z,8.52
2022-08-24T09:31:03.850Z,9.13
2022-08-24T09:33:38.475Z,8.32
2022-08-24T09:36:10.820Z,8.25
2022-08-24T09:38:58.970Z,7.30
2022-08-24T09:41:57.197Z,8.48
2022-08-24T09:44:45.421Z,9.80
2022-08-24T09:47:52.207Z,9.50
2022-08-24T09:50:39.144Z,10.20
2022-08-24T09:53:40.923Z,9.45
2022-08-24T09:56:36.102Z,9.65
2022-08-24T09:59:25.697Z,10.57
2022-08-24T10:02:10.523Z,9.98
2022-08-24T10:04:46.302Z,8.65
2022-08-24T10:07:19.908Z,8.77
2022-08-24T10:10:10.347Z,8.43
2022-08-24T10:12:56.636Z,9.30
2022-08-24T10:15:32.328Z,8.40
2022-08-24T10:18:20.517Z,9.50
2022-08-24T10:21:04.225Z,9.82
2022-08-24T10:23:48.636Z,9.75
2022-08-24T10:26:23.008Z,8.70
2022-08-24T10:29:07.029Z,9.15
2022-08-24T10:31:45.927Z,9.27
2022-08-24T10:34:35.709Z,8.05
2022-08-24T10:37:25.789Z,9.10
2022-08-24T10:40:13.196Z,8.98
2022-08-24T10:43:10.433Z,8.45
2022-08-24T10:46:21.435Z,8.45
2022-08-24T10:49:12.224Z,8.05
2022-08-24T10:52:00.949Z,8.65
2022-08-24T10:54:29.808Z,7.57
2022-08-24T10:57:10.339Z,7.95
2022-08-24T10:59:53.182Z,7.35
2022-08-24T11:02:31.487Z,7.53
2022-08-24T11:05:03.065Z,6.72
2022-08-24T11:07:31.250Z,7.72
2022-08-24T11:10:01.914Z,7.05
2022-08-24T11:12:32.744Z,6.72
2022-08-24T11:15:05.035Z,7.35
2022-08-24T11:17:34.880Z,6.90
2022-08-24T11:20:05.524Z,5.88
2022-08-24T11:22:43.255Z,6.65
2022-08-24T11:25:18.060Z,6.70
2022-08-24T11:27:49.246Z,19.20
2022-08-24T11:30:25.384Z,6.18
2022-08-24T11:32:56.496Z,6.50
2022-08-24T11:35:29.230Z,6.13
2022-08-24T11:38:04.784Z,6.05
2022-08-24T11:40:38.389Z,6.22
2022-08-24T11:43:22.956Z,5.40
2022-08-24T11:46:04.572Z,5.82
2022-08-24T11:48:43.673Z,6.03
2022-08-24T11:51:21.779Z,6.00
2022-08-24T11:53:59.978Z,5.88
2022-08-24T11:56:36.148Z,6.40
2022-08-24T11:59:12.288Z,5.93
2022-08-24T12:01:48.925Z,6.10
2022-08-24T12:04:40.236Z,6.20
2022-08-24T12:07:21.449Z,6.28
2022-08-24T12:10:15.165Z,6.05
2022-08-24T12:12:50.620Z,6.75
2022-08-24T12:15:28.780Z,5.97
2022-08-24T12:18:02.857Z,6.50
2022-08-24T12:20:34.227Z,6.38
2022-08-24T12:23:09.201Z,6.25
2022-08-24T12:25:55.830Z,5.50
2022-08-24T12:28:29.092Z,6.13
2022-08-24T12:31:04.065Z,5.30
2022-08-24T12:33:37.523Z,5.45
2022-08-24T12:36:23.978Z,4.55
2022-08-24T12:39:03.072Z,5.07
2022-08-24T12:41:35.804Z,5.78
2022-08-24T12:44:10.352Z,5.57
2022-08-24T12:46:38.992Z,5.20
2022-08-24T12:49:12.493Z,5.57
2022-08-24T12:52:00.675Z,4.85
2022-08-24T12:54:48.075Z,5.00
2022-08-24T12:57:31.589Z,5.45
2022-08-24T13:00:06.212Z,5.07
2022-08-24T13:02:44.064Z,5.85
2022-08-24T13:05:19.318Z,5.15
2022-08-24T13:07:50.550Z,5.85
2022-08-24T13:10:39.779Z,5.65
2022-08-24T13:13:15.034Z,9.43
2022-08-24T13:16:00.654Z,5.85
2022-08-24T13:19:13.433Z,5.35
2022-08-24T13:21:52.844Z,5.55
2022-08-24T13:24:45.799Z,6.70
2022-08-24T13:27:49.096Z,5.07
2022-08-24T13:30:24.551Z,7.63
2022-08-24T13:33:02.832Z,5.85
2022-08-24T13:35:36.619Z,8.18
2022-08-24T13:38:42.514Z,14.15
2022-08-24T13:41:21.141Z,6.75
2022-08-24T13:44:00.447Z,6.78
2022-08-24T13:46:52.098Z,6.80
2022-08-24T13:49:31.736Z,6.97
2022-08-24T13:52:13.810Z,7.40
2022-08-24T13:54:53.363Z,8.10
2022-08-24T13:57:39.628Z,7.03
2022-08-24T14:00:31.384Z,7.20
2022-08-24T14:03:10.661Z,7.15
2022-08-24T14:05:47.302Z,6.40
2022-08-24T14:08:31.297Z,6.57
2022-08-24T14:11:09.113Z,6.45
2022-08-24T14:13:53.897Z,6.07
2022-08-24T14:17:19.314Z,6.40
2022-08-24T14:19:59.728Z,6.88
2022-08-24T14:22:35.407Z,5.57
2022-08-24T14:25:17.184Z,6.22
2022-08-24T14:27:46.685Z,5.07
2022-08-24T14:30:44.867Z,5.95
2022-08-24T14:33:28.206Z,5.82
2022-08-24T14:36:12.385Z,5.53
2022-08-24T14:38:58.822Z,5.22
2022-08-24T14:41:42.993Z,5.60
2022-08-24T14:44:26.073Z,5.18
2022-08-24T14:47:03.275Z,5.13
2022-08-24T14:49:44.646Z,6.20
2022-08-24T14:52:24.896Z,5.03
2022-08-24T14:55:06.410Z,6.43
2022-08-24T14:57:48.670Z,5.43
2022-08-24T15:00:20.562Z,5.28
2022-08-24T15:03:16.243Z,5.28
2022-08-24T15:06:15.956Z,5.20
2022-08-24T15:08:44.035Z,4.50
2022-08-24T15:11:15.303Z,5.95
2022-08-24T15:13:48.565Z,4.95
2022-08-24T15:16:22.283Z,4.65
2022-08-24T15:18:59.139Z,5.07
2022-08-24T15:21:37.369Z,5.47
2022-08-24T15:24:16.716Z,5.18
2022-08-24T15:26:56.770Z,4.70
2022-08-24T15:29:30.336Z,4.78
2022-08-24T15:32:07.192Z,4.32
2022-08-24T15:34:40.585Z,4.40
2022-08-24T15:37:10.843Z,3.92
2022-08-24T15:39:39.023Z,4.57
2022-08-24T15:42:13.460Z,4.35
2022-08-24T15:44:44.218Z,4.20
2022-08-24T15:47:20.986Z,4.22
2022-08-24T15:49:53.358Z,3.88
2022-08-24T15:52:48.391Z,5.00
2022-08-24T15:55:31.434Z,3.70
2022-08-24T15:58:12.668Z,4.30
2022-08-24T16:00:58.589Z,3.85
2022-08-24T16:03:28.623Z,4.25
2022-08-24T16:06:17.065Z,4.13
2022-08-24T16:08:58.601Z,4.10
2022-08-24T16:11:36.001Z,4.13
2022-08-24T16:14:04.921Z,4.68
2022-08-24T16:16:40.564Z,4.10
2022-08-24T16:19:21.472Z,3.55
2022-08-24T16:21:56.156Z,3.95
2022-08-24T16:24:32.921Z,4.22
2022-08-24T16:27:05.417Z,3.78
2022-08-24T16:29:52.621Z,4.35
2022-08-24T16:32:30.586Z,4.07
2022-08-24T16:35:18.123Z,3.97
2022-08-24T16:37:46.376Z,3.70
2022-08-24T16:40:16.906Z,3.90
2022-08-24T16:42:45.200Z,3.55
2022-08-24T16:45:17.395Z,3.90
2022-08-24T16:47:47.158Z,3.83
2022-08-24T16:50:16.810Z,3.90
2022-08-24T16:52:45.352Z,4.40
2022-08-24T16:55:14.988Z,4.35
2022-08-24T16:57:43.543Z,3.92
2022-08-24T17:00:17.452Z,3.88
2022-08-24T17:02:48.211Z,4.05
2022-08-24T17:05:16.922Z,4.15
2022-08-24T17:07:46.160Z,4.50
2022-08-24T17:10:18.013Z,3.95
2022-08-24T17:12:46.882Z,4.65
2022-08-24T17:15:16.278Z,4.15
2022-08-24T17:17:47.444Z,4.68
2022-08-24T17:20:15.691Z,5.15
2022-08-24T17:22:43.816Z,4.95
2022-08-24T17:25:11.932Z,4.10
2022-08-24T17:27:41.433Z,4.38
2022-08-24T17:30:10.998Z,4.57
2022-08-24T17:32:39.379Z,4.32
2022-08-24T17:35:07.953Z,3.90
2022-08-24T17:37:37.004Z,4.40
2022-08-24T17:40:09.361Z,4.20
2022-08-24T17:42:50.682Z,5.03
2022-08-24T17:45:22.861Z,4.30
2022-08-24T17:47:52.855Z,4.25
2022-08-24T17:50:24.208Z,4.40
2022-08-24T17:52:58.877Z,4.03
2022-08-24T17:55:29.335Z,4.38
2022-08-24T17:57:58.080Z,4.30
2022-08-24T18:00:27.680Z,3.95
2022-08-24T18:02:56.009Z,4.28
2022-08-24T18:05:24.427Z,4.00
2022-08-24T18:07:55.209Z,4.03
2022-08-24T18:10:25.670Z,4.22
2022-08-24T18:12:54.453Z,4.25
2022-08-24T18:15:31.101Z,4.38
2022-08-24T18:18:08.753Z,5.00
2022-08-24T18:20:40.071Z,4.85
2022-08-24T18:23:11.774Z,4.78
2022-08-24T18:25:46.015Z,4.95
2022-08-24T18:28:16.160Z,4.80
2022-08-24T18:30:45.900Z,5.32
2022-08-24T18:33:15.581Z,5.82
2022-08-24T18:35:44.447Z,5.55
2022-08-24T18:38:14.057Z,5.13
2022-08-24T18:40:46.831Z,5.45
2022-08-24T18:43:23.415Z,5.30
2022-08-24T18:45:52.872Z,6.20
2022-08-24T18:48:22.635Z,5.88
2022-08-24T18:50:51.253Z,6.20
2022-08-24T18:53:20.003Z,6.45
2022-08-24T18:55:49.451Z,6.40
2022-08-24T18:58:17.555Z,7.20
2022-08-24T19:00:46.277Z,6.38
2022-08-24T19:03:19.388Z,6.18
2022-08-24T19:05:48.975Z,6.22
2022-08-24T19:08:17.132Z,5.82
2022-08-24T19:10:45.992Z,5.40
2022-08-24T19:13:18.275Z,5.57
2022-08-24T19:15:47.788Z,5.95
2022-08-24T19:18:17.283Z,4.65
2022-08-24T19:20:50.097Z,4.93
2022-08-24T19:23:22.742Z,5.75
2022-08-24T19:25:51.145Z,4.60
2022-08-24T19:28:20.117Z,5.78
2022-08-24T19:30:49.574Z,5.97
2022-08-24T19:33:24.722Z,4.88
2022-08-24T19:35:55.054Z,5.03
2022-08-24T19:38:25.702Z,4.97
2022-08-24T19:40:55.350Z,5.43
2022-08-24T19:43:23.948Z,4.88
2022-08-24T19:46:04.039Z,5.53
2022-08-24T19:48:35.056Z,5.72
2022-08-24T19:51:07.653Z,5.32
2022-08-24T19:53:37.942Z,4.80
2022-08-24T19:56:07.425Z,4.97
2022-08-24T19:58:44.339Z,5.20
2022-08-24T20:01:15.074Z,5.30
2022-08-24T20:03:43.368Z,5.10
2022-08-24T20:06:13.660Z,5.28
2022-08-24T20:08:42.350Z,5.20
2022-08-24T20:11:11.022Z,5.97
2022-08-24T20:13:39.144Z,5.82
2022-08-24T20:16:10.817Z,4.53
2022-08-24T20:18:39.473Z,5.68
2022-08-24T20:21:08.829Z,4.95
2022-08-24T20:23:38.417Z,5.05
2022-08-24T20:26:08.312Z,4.70
2022-08-24T20:28:41.356Z,4.95
2022-08-24T20:31:10.666Z,5.75
2022-08-24T20:33:38.999Z,5.28
2022-08-24T20:36:08.320Z,5.93
2022-08-24T20:38:37.846Z,5.15
2022-08-24T20:41:06.466Z,5.35
2022-08-24T20:43:34.633Z,4.95
2022-08-24T20:46:02.856Z,5.00
2022-08-24T20:48:33.848Z,4.70
2022-08-24T20:51:02.598Z,4.97
2022-08-24T20:53:30.761Z,5.50
2022-08-24T20:56:04.127Z,4.97
2022-08-24T20:58:32.298Z,5.50
2022-08-24T21:01:00.407Z,5.72
2022-08-24T21:03:28.739Z,4.93
2022-08-24T21:05:57.323Z,4.35
2022-08-24T21:08:26.080Z,4.88
2022-08-24T21:10:54.714Z,4.90
2022-08-24T21:13:24.330Z,5.20
2022-08-24T21:15:53.013Z,4.88
2022-08-24T21:18:21.418Z,5.65
2022-08-24T21:21:03.278Z,5.13
2022-08-24T21:23:31.888Z,5.80
2022-08-24T21:26:00.773Z,4.97
2022-08-24T21:28:30.684Z,5.20
2022-08-24T21:31:02.492Z,5.07
2022-08-24T21:33:50.930Z,5.28
2022-08-24T21:36:20.556Z,5.30
2022-08-24T21:38:48.711Z,5.00
2022-08-24T21:41:16.824Z,4.88
2022-08-24T21:43:46.376Z,4.53
2022-08-24T21:46:14.809Z,5.20
2022-08-24T21:48:43.025Z,5.20
2022-08-24T21:51:11.360Z,5.28
2022-08-24T21:53:39.567Z,5.68
2022-08-24T21:56:08.270Z,6.50
2022-08-24T21:58:36.451Z,5.00
2022-08-24T22:01:07.502Z,5.75
2022-08-24T22:03:40.141Z,6.47
2022-08-24T22:06:09.071Z,5.80
2022-08-24T22:08:37.909Z,5.93
2022-08-24T22:11:07.331Z,5.78
2022-08-24T22:13:36.126Z,5.45
2022-08-24T22:16:06.451Z,5.50
2022-08-24T22:18:35.425Z,5.50
2022-08-24T22:21:08.296Z,4.75
2022-08-24T22:23:36.875Z,5.00
2022-08-24T22:26:06.459Z,4.63
2022-08-24T22:28:36.249Z,5.32
2022-08-24T22:31:14.951Z,4.78
2022-08-24T22:33:43.113Z,4.85
2022-08-24T22:36:11.978Z,5.63
2022-08-24T22:38:40.376Z,5.25
2022-08-24T22:41:09.377Z,5.05
2022-08-24T22:43:55.084Z,5.30
2022-08-24T22:46:26.154Z,5.63
2022-08-24T22:48:54.612Z,5.30
2022-08-24T22:51:23.252Z,5.30
2022-08-24T22:53:51.652Z,5.25
2022-08-24T22:56:22.138Z,5.00
2022-08-24T22:58:50.344Z,6.00
2022-08-24T23:01:22.974Z,5.15
2022-08-24T23:03:53.503Z,5.30
2022-08-24T23:06:22.619Z,5.15
2022-08-24T23:08:50.908Z,5.13
2022-08-24T23:11:23.265Z,4.80
2022-08-24T23:13:51.610Z,5.32
2022-08-24T23:16:19.871Z,5.57
2022-08-24T23:19:05.415Z,5.53
2022-08-24T23:21:35.093Z,4.97
2022-08-24T23:24:03.641Z,5.43
2022-08-24T23:26:32.607Z,4.88
2022-08-24T23:29:00.860Z,5.20
2022-08-24T23:31:30.278Z,5.28
2022-08-24T23:33:58.955Z,5.57
2022-08-24T23:36:29.269Z,5.25
2022-08-24T23:39:00.251Z,5.53
2022-08-24T23:41:31.108Z,5.43
2022-08-24T23:44:02.087Z,5.63
2022-08-24T23:46:30.364Z,5.75
2022-08-24T23:49:03.306Z,5.93
2022-08-24T23:51:31.872Z,6.68
2022-08-24T23:54:02.224Z,6.57
2022-08-24T23:56:32.506Z,6.60
2022-08-24T23:59:02.434Z,6.72
